createdAt,value
2022-08-09T00:00:00.919Z,95143.25
2022-08-09T00:02:31.982Z,95149.94
2022-08-09T00:05:03.466Z,95150.69
2022-08-09T00:07:45.991Z,95146.13
2022-08-09T00:10:14.402Z,95140.00
2022-08-09T00:12:52.511Z,95153.69
2022-08-09T00:15:26.563Z,95145.09
2022-08-09T00:18:11.539Z,95141.75
2022-08-09T00:20:42.153Z,95146.00
2022-08-09T00:23:56.094Z,95141.28
2022-08-09T00:26:05.104Z,95130.19
2022-08-09T00:28:34.529Z,95144.56
2022-08-09T00:31:09.318Z,95147.88
2022-08-09T00:33:54.125Z,95147.50
2022-08-09T00:36:22.372Z,95145.47
2022-08-09T00:38:56.088Z,95139.25
2022-08-09T00:44:10.714Z,95145.03
2022-08-09T00:44:20.032Z,95156.88
2022-08-09T00:46:57.308Z,95151.31
2022-08-09T00:49:36.804Z,95148.47
2022-08-09T00:52:05.496Z,95136.00
2022-08-09T00:54:35.913Z,95142.94
2022-08-09T00:57:10.679Z,95154.53
2022-08-09T00:59:46.557Z,95154.31
2022-08-09T01:02:22.120Z,95159.56
2022-08-09T01:04:51.535Z,95159.81
2022-08-09T01:08:01.190Z,95163.00
2022-08-09T01:10:55.106Z,95156.50
2022-08-09T01:13:24.267Z,95165.69
2022-08-09T01:16:01.154Z,95159.25
2022-08-09T01:18:32.448Z,95163.44
2022-08-09T01:21:41.273Z,95176.16
2022-08-09T01:24:30.554Z,95141.59
2022-08-09T01:27:13.311Z,95153.78
2022-08-09T01:29:55.698Z,95140.84
2022-08-09T01:32:31.927Z,95145.47
2022-08-09T01:35:37.837Z,95154.72
2022-08-09T01:38:18.064Z,95153.41
2022-08-09T01:40:53.126Z,95143.88
2022-08-09T01:43:48.025Z,95142.97
2022-08-09T01:46:27.952Z,95139.56
2022-08-09T01:48:59.788Z,95137.28
2022-08-09T01:51:32.550Z,95135.50
2022-08-09T01:54:02.086Z,95133.00
2022-08-09T01:56:32.433Z,95138.44
2022-08-09T01:59:03.972Z,95154.16
2022-08-09T02:01:58.020Z,95144.16
2022-08-09T02:04:22.116Z,95140.88
2022-08-09T02:07:18.196Z,95136.22
2022-08-09T02:10:04.694Z,95123.75
2022-08-09T02:12:34.029Z,95121.72
2022-08-09T02:15:02.932Z,95119.44
2022-08-09T02:18:00.056Z,95120.72
2022-08-09T02:20:26.567Z,95118.31
2022-08-09T02:23:18.389Z,95122.56
2022-08-09T02:25:52.572Z,95120.28
2022-08-09T02:28:27.335Z,95128.88
2022-08-09T02:31:07.496Z,95138.16
2022-08-09T02:34:07.042Z,95139.47
2022-08-09T02:36:34.116Z,95143.84
2022-08-09T02:39:05.775Z,95147.16
2022-08-09T02:41:49.721Z,95143.00
2022-08-09T02:44:29.438Z,95139.59
2022-08-09T02:46:58.731Z,95141.53
2022-08-09T02:49:38.224Z,95139.47
2022-08-09T02:52:07.842Z,95136.09
2022-08-09T02:54:54.135Z,95148.22
2022-08-09T02:57:23.668Z,95144.19
2022-08-09T03:00:21.525Z,95134.19
2022-08-09T03:02:46.237Z,95146.78
2022-08-09T03:05:26.628Z,95137.75
2022-08-09T03:07:55.669Z,95142.03
2022-08-09T03:10:24.141Z,95152.59
2022-08-09T03:12:52.744Z,95151.16
2022-08-09T03:15:20.855Z,95140.19
2022-08-09T03:17:57.752Z,95146.97
2022-08-09T03:20:29.732Z,95154.75
2022-08-09T03:22:58.399Z,95145.22
2022-08-09T03:26:03.753Z,95151.19
2022-08-09T03:28:30.573Z,95140.88
2022-08-09T03:30:58.849Z,95153.13
2022-08-09T03:33:53.281Z,95147.03
2022-08-09T03:36:16.798Z,95152.97
2022-08-09T03:38:44.949Z,95156.44
2022-08-09T03:41:14.681Z,95160.44
2022-08-09T03:43:42.871Z,95148.53
2022-08-09T03:46:30.404Z,95153.91
2022-08-09T03:49:03.652Z,95160.28
2022-08-09T03:51:56.613Z,95155.19
2022-08-09T03:54:29.138Z,95166.91
2022-08-09T03:56:59.865Z,95154.47
2022-08-09T03:59:53.441Z,95156.13
2022-08-09T04:02:14.298Z,95147.78
2022-08-09T04:04:46.171Z,95160.91
2022-08-09T04:07:14.618Z,95157.03
2022-08-09T04:09:50.249Z,95162.25
2022-08-09T04:12:47.341Z,95168.00
2022-08-09T04:15:39.157Z,95161.03
2022-08-09T04:18:05.874Z,95163.88
2022-08-09T04:20:33.414Z,95161.63
2022-08-09T04:23:00.633Z,95161.25
2022-08-09T04:25:29.077Z,95160.06
2022-08-09T04:28:00.030Z,95172.16
2022-08-09T04:30:29.530Z,95172.41
2022-08-09T04:32:56.970Z,95164.69
2022-08-09T04:35:23.654Z,95169.84
2022-08-09T04:37:50.627Z,95183.31
2022-08-09T04:40:19.316Z,95180.63
2022-08-09T04:42:55.753Z,95175.88
2022-08-09T04:45:23.683Z,95183.06
2022-08-09T04:48:00.893Z,95184.34
2022-08-09T04:50:31.990Z,95185.72
2022-08-09T04:53:12.982Z,95184.03
2022-08-09T04:55:58.200Z,95185.00
2022-08-09T04:58:28.955Z,95182.59
2022-08-09T05:00:57.440Z,95190.78
2022-08-09T05:03:40.057Z,95201.50
2022-08-09T05:06:21.971Z,95191.34
2022-08-09T05:09:00.035Z,95192.47
2022-08-09T05:11:30.448Z,95201.72
2022-08-09T05:13:57.503Z,95198.38
2022-08-09T05:16:31.534Z,95196.88
2022-08-09T05:19:00.120Z,95204.25
2022-08-09T05:21:30.011Z,95194.28
2022-08-09T05:24:04.695Z,95202.59
2022-08-09T05:26:36.913Z,95207.44
2022-08-09T05:29:17.360Z,95210.88
2022-08-09T05:31:56.087Z,95207.66
2022-08-09T05:34:30.749Z,95214.00
2022-08-09T05:37:01.764Z,95204.16
2022-08-09T05:39:36.352Z,95214.59
2022-08-09T05:42:10.247Z,95216.09
2022-08-09T05:44:44.850Z,95212.06
2022-08-09T05:47:14.353Z,95204.03
2022-08-09T05:50:24.418Z,95216.16
2022-08-09T05:52:27.888Z,95216.66
2022-08-09T05:55:03.198Z,95212.13
2022-08-09T05:57:51.072Z,95219.38
2022-08-09T06:00:23.308Z,95211.91
2022-08-09T06:02:54.414Z,95206.75
2022-08-09T06:05:30.937Z,95204.69
2022-08-09T06:08:11.058Z,95212.44
2022-08-09T06:10:38.558Z,95216.22
2022-08-09T06:13:18.841Z,95207.00
2022-08-09T06:15:47.493Z,95210.13
2022-08-09T06:18:18.955Z,95212.44
2022-08-09T06:20:54.281Z,95206.09
2022-08-09T06:23:57.272Z,95206.88
2022-08-09T06:26:14.769Z,95198.44
2022-08-09T06:28:47.294Z,95209.16
2022-08-09T06:31:13.969Z,95216.81
2022-08-09T06:33:42.117Z,95200.47
2022-08-09T06:36:15.489Z,95210.66
2022-08-09T06:38:47.247Z,95205.59
2022-08-09T06:41:18.968Z,95201.84
2022-08-09T06:43:47.170Z,95198.22
2022-08-09T06:46:39.012Z,95202.13
2022-08-09T06:49:01.317Z,95203.84
2022-08-09T06:51:28.256Z,95200.69
2022-08-09T06:53:55.596Z,95204.41
2022-08-09T06:56:30.902Z,95201.97
2022-08-09T07:00:55.410Z,95184.13
2022-08-09T07:01:53.725Z,95192.88
2022-08-09T07:04:21.583Z,95196.50
2022-08-09T07:06:53.379Z,95209.81
2022-08-09T07:09:54.954Z,95200.09
2022-08-09T07:12:17.649Z,95198.84
2022-08-09T07:14:51.461Z,95202.09
2022-08-09T07:17:20.312Z,95199.75
2022-08-09T07:19:50.813Z,95202.25
2022-08-09T07:22:18.674Z,95198.13
2022-08-09T07:25:01.479Z,95202.91
2022-08-09T07:27:34.153Z,95194.59
2022-08-09T07:30:09.809Z,95191.06
2022-08-09T07:32:36.864Z,95204.88
2022-08-09T07:35:11.489Z,95202.34
2022-08-09T07:37:46.106Z,95198.91
2022-08-09T07:40:18.719Z,95206.72
2022-08-09T07:42:54.362Z,95198.03
2022-08-09T07:45:38.306Z,95198.91
2022-08-09T07:48:28.855Z,95201.56
2022-08-09T07:51:09.309Z,95196.00
2022-08-09T07:54:05.220Z,95197.25
2022-08-09T07:56:28.650Z,95200.63
2022-08-09T07:58:59.296Z,95198.28
2022-08-09T08:01:34.217Z,95182.72
2022-08-09T08:04:04.144Z,95188.31
2022-08-09T08:06:37.345Z,95186.81
2022-08-09T08:09:38.532Z,95178.63
2022-08-09T08:12:27.738Z,95194.28
2022-08-09T08:14:55.615Z,95182.81
2022-08-09T08:17:35.549Z,95180.97
2022-08-09T08:20:13.267Z,95172.34
2022-08-09T08:22:40.672Z,95146.22
2022-08-09T08:25:09.320Z,95163.44
2022-08-09T08:27:40.447Z,95166.41
2022-08-09T08:30:08.555Z,95166.16
2022-08-09T08:32:52.313Z,95166.06
2022-08-09T08:35:22.541Z,95172.09
2022-08-09T08:37:59.609Z,95155.50
2022-08-09T08:40:33.570Z,95165.50
2022-08-09T08:43:01.468Z,95151.00
2022-08-09T08:45:37.979Z,95150.72
2022-08-09T08:48:10.345Z,95156.31
2022-08-09T08:50:49.369Z,95149.38
2022-08-09T08:53:22.051Z,95152.44
2022-08-09T08:55:49.029Z,95138.00
2022-08-09T08:58:27.056Z,95129.34
2022-08-09T09:00:57.097Z,95139.06
2022-08-09T09:03:37.343Z,95129.06
2022-08-09T09:06:05.769Z,95131.97
2022-08-09T09:08:37.779Z,95130.31
2022-08-09T09:11:08.003Z,95135.25
2022-08-09T09:13:55.406Z,95130.53
2022-08-09T09:16:33.571Z,95119.69
2022-08-09T09:19:22.588Z,95123.72
2022-08-09T09:22:02.962Z,95121.06
2022-08-09T09:24:39.612Z,95127.56
2022-08-09T09:27:08.786Z,95115.00
2022-08-09T09:30:12.289Z,95113.22
2022-08-09T09:32:35.255Z,95105.53
2022-08-09T09:35:10.876Z,95110.13
2022-08-09T09:37:45.449Z,95119.44
2022-08-09T09:40:12.430Z,95112.81
2022-08-09T09:42:46.096Z,95111.59
2022-08-09T09:45:14.539Z,95106.84
2022-08-09T09:47:58.516Z,95109.38
2022-08-09T09:50:50.665Z,95121.38
2022-08-09T09:53:25.211Z,95106.81
2022-08-09T09:56:19.857Z,95116.31
2022-08-09T09:58:57.332Z,95105.03
2022-08-09T10:01:36.711Z,95102.81
2022-08-09T10:04:23.035Z,95096.47
2022-08-09T10:06:57.388Z,95092.78
2022-08-09T10:09:24.363Z,95095.47
2022-08-09T10:12:12.103Z,95094.66
2022-08-09T10:14:47.738Z,95094.41
2022-08-09T10:17:38.949Z,95094.75
2022-08-09T10:20:14.993Z,95121.44
2022-08-09T10:22:42.223Z,95105.91
2022-08-09T10:25:11.865Z,95102.50
2022-08-09T10:27:45.259Z,95105.09
2022-08-09T10:34:04.679Z,95091.25
2022-08-09T10:36:00.870Z,95098.88
2022-08-09T10:38:54.405Z,95092.78
2022-08-09T10:41:18.606Z,95088.50
2022-08-09T10:44:01.461Z,95103.59
2022-08-09T10:46:54.632Z,95076.78
2022-08-09T10:49:51.307Z,95093.28
2022-08-09T10:53:00.029Z,95093.19
2022-08-09T10:55:35.776Z,95089.50
2022-08-09T10:58:35.077Z,95093.06
2022-08-09T11:03:02.261Z,95083.59
2022-08-09T11:04:19.460Z,95088.94
2022-08-09T11:07:00.339Z,95086.44
2022-08-09T11:09:41.165Z,95102.25
2022-08-09T11:12:29.362Z,95086.72
2022-08-09T11:15:19.447Z,95085.69
2022-08-09T11:18:02.598Z,95065.25
2022-08-09T11:20:49.884Z,95076.00
2022-08-09T11:23:16.810Z,95071.09
2022-08-09T11:25:51.015Z,95076.44
2022-08-09T11:28:55.868Z,95071.16
2022-08-09T11:31:43.398Z,95064.31
2022-08-09T11:34:35.128Z,95072.66
2022-08-09T11:37:03.680Z,95073.53
2022-08-09T11:40:01.594Z,95068.19
2022-08-09T11:42:50.555Z,95072.66
2022-08-09T11:45:43.494Z,95057.56
2022-08-09T11:48:26.781Z,95071.31
2022-08-09T11:51:19.695Z,95047.94
2022-08-09T11:54:01.476Z,95046.59
2022-08-09T11:56:41.690Z,95058.88
2022-08-09T11:59:11.952Z,95065.84
2022-08-09T12:02:17.229Z,95081.81
2022-08-09T12:04:37.389Z,95055.44
2022-08-09T12:07:08.379Z,95052.78
2022-08-09T12:09:36.158Z,95054.41
2022-08-09T12:12:11.969Z,95040.34
2022-08-09T12:15:07.255Z,95038.09
2022-08-09T12:17:34.429Z,95044.28
2022-08-09T12:20:42.050Z,95041.25
2022-08-09T12:23:08.737Z,95035.66
2022-08-09T12:25:38.436Z,95034.72
2022-08-09T12:29:00.009Z,95037.09
2022-08-09T12:31:57.949Z,95020.22
2022-08-09T12:34:17.832Z,95009.41
2022-08-09T12:36:52.696Z,95023.34
2022-08-09T12:39:26.037Z,95023.03
2022-08-09T12:41:54.330Z,95003.50
2022-08-09T12:44:24.608Z,95005.72
2022-08-09T12:46:51.586Z,95001.53
2022-08-09T12:49:20.851Z,94999.03
2022-08-09T12:52:02.552Z,94990.28
2022-08-09T12:55:00.780Z,94992.25
2022-08-09T12:57:41.076Z,94986.53
2022-08-09T13:00:32.479Z,94983.41
2022-08-09T13:03:02.984Z,94985.28
2022-08-09T13:06:13.246Z,94975.28
2022-08-09T13:08:35.459Z,94983.22
2022-08-09T13:11:13.197Z,94994.00
2022-08-09T13:14:41.301Z,94962.72
2022-08-09T13:16:52.111Z,94975.28
2022-08-09T13:20:08.740Z,94981.19
2022-08-09T13:22:37.692Z,94982.19
2022-08-09T13:25:07.333Z,94970.31
2022-08-09T13:27:39.950Z,94978.47
2022-08-09T13:30:50.101Z,94988.94
2022-08-09T13:33:11.700Z,94974.09
2022-08-09T13:36:39.144Z,94987.16
2022-08-09T13:38:55.624Z,94995.50
2022-08-09T13:41:57.550Z,94982.78
2022-08-09T13:44:13.675Z,94982.78
2022-08-09T13:47:26.916Z,94988.41
2022-08-09T13:49:37.548Z,94982.97
2022-08-09T13:52:09.183Z,94996.84
2022-08-09T13:54:42.895Z,94981.78
2022-08-09T13:57:35.409Z,94981.78
2022-08-09T14:00:04.594Z,94979.97
2022-08-09T14:02:31.217Z,94984.28
2022-08-09T14:05:03.223Z,95000.41
2022-08-09T14:07:41.908Z,94978.44
2022-08-09T14:10:17.193Z,94962.81
2022-08-09T14:12:55.708Z,94967.56
2022-08-09T14:16:10.221Z,94982.03
2022-08-09T14:18:18.925Z,94971.19
2022-08-09T14:20:46.867Z,94984.53
2022-08-09T14:23:22.946Z,94975.84
2022-08-09T14:26:05.679Z,94989.47
2022-08-09T14:28:33.294Z,94974.38
2022-08-09T14:30:59.899Z,94973.31
2022-08-09T14:33:26.507Z,94966.81
2022-08-09T14:35:55.946Z,94964.75
2022-08-09T14:38:22.765Z,94966.22
2022-08-09T14:41:02.823Z,94952.13
2022-08-09T14:43:53.411Z,94949.75
2022-08-09T14:46:55.884Z,94950.28
2022-08-09T14:49:10.496Z,94947.81
2022-08-09T14:51:41.983Z,94954.25
2022-08-09T14:54:09.657Z,94948.00
2022-08-09T14:56:36.375Z,94946.16
2022-08-09T14:59:23.468Z,94949.34
2022-08-09T15:01:50.506Z,94945.66
2022-08-09T15:04:17.103Z,94950.28
2022-08-09T15:06:49.369Z,94952.69
2022-08-09T15:09:30.494Z,94939.69
2022-08-09T15:12:04.683Z,94946.81
2022-08-09T15:14:34.609Z,94946.41
2022-08-09T15:17:07.761Z,94932.50
2022-08-09T15:19:36.709Z,94943.13
2022-08-09T15:22:03.871Z,94932.66
2022-08-09T15:24:32.290Z,94942.25
2022-08-09T15:26:59.555Z,94933.66
2022-08-09T15:30:56.298Z,94931.16
2022-08-09T15:32:28.378Z,94934.72
2022-08-09T15:34:55.876Z,94926.88
2022-08-09T15:37:37.011Z,94944.75
2022-08-09T15:40:11.641Z,94927.47
2022-08-09T15:42:40.385Z,94930.28
2022-08-09T15:45:11.265Z,94933.53
2022-08-09T15:47:45.656Z,94957.63
2022-08-09T15:50:19.645Z,94947.56
2022-08-09T15:52:55.153Z,94943.72
2022-08-09T15:55:36.359Z,94951.63
2022-08-09T15:58:24.121Z,94943.22
2022-08-09T16:00:56.442Z,94937.56
2022-08-09T16:03:29.417Z,94941.25
2022-08-09T16:06:05.517Z,94941.72
2022-08-09T16:08:32.388Z,94967.28
2022-08-09T16:11:01.552Z,94951.34
2022-08-09T16:14:03.978Z,94937.56
2022-08-09T16:16:18.323Z,94960.47
2022-08-09T16:18:46.315Z,94957.22
2022-08-09T16:21:17.176Z,94936.38
2022-08-09T16:23:56.005Z,94940.94
2022-08-09T16:26:35.664Z,94919.56
2022-08-09T16:29:12.567Z,94933.66
2022-08-09T16:32:19.527Z,94946.13
2022-08-09T16:34:55.516Z,94938.31
2022-08-09T16:37:18.472Z,94939.41
2022-08-09T16:40:00.465Z,94939.00
2022-08-09T16:42:33.014Z,94943.81
2022-08-09T16:44:59.640Z,94936.25
2022-08-09T16:48:39.115Z,94945.97
2022-08-09T16:50:30.139Z,94954.25
2022-08-09T16:52:59.942Z,94951.81
2022-08-09T16:55:26.662Z,94962.38
2022-08-09T16:58:09.072Z,94962.53
2022-08-09T17:00:42.647Z,94956.56
2022-08-09T17:03:22.071Z,94975.22
2022-08-09T17:06:03.508Z,94961.72
2022-08-09T17:08:45.871Z,94977.59
2022-08-09T17:11:32.758Z,94965.59
2022-08-09T17:14:08.751Z,94998.78
2022-08-09T17:16:53.774Z,95006.28
2022-08-09T17:19:20.975Z,94999.53
2022-08-09T17:21:47.790Z,95003.97
2022-08-09T17:24:28.400Z,95007.06
2022-08-09T17:26:58.316Z,95006.50
2022-08-09T17:29:25.442Z,95010.06
2022-08-09T17:32:00.235Z,95023.53
2022-08-09T17:35:07.378Z,95012.63
2022-08-09T17:37:19.587Z,95021.00
2022-08-09T17:39:52.478Z,95029.63
2022-08-09T17:42:41.811Z,95037.03
2022-08-09T17:45:08.828Z,95032.63
2022-08-09T17:47:55.010Z,95031.53
2022-08-09T17:50:25.052Z,95036.38
2022-08-09T17:53:19.785Z,95038.63
2022-08-09T17:55:54.235Z,95047.25
2022-08-09T17:58:26.976Z,95049.56
2022-08-09T18:00:56.767Z,95056.63
2022-08-09T18:03:25.254Z,95061.34
2022-08-09T18:05:53.224Z,95054.69
2022-08-09T18:08:22.316Z,95065.34
2022-08-09T18:11:00.881Z,95064.97
2022-08-09T18:13:39.504Z,95070.38
2022-08-09T18:16:17.183Z,95068.16
2022-08-09T18:18:57.429Z,95079.13
2022-08-09T18:21:26.294Z,95078.75
2022-08-09T18:24:11.115Z,95084.34
2022-08-09T18:26:46.055Z,95089.56
2022-08-09T18:30:38.042Z,95088.81
2022-08-09T18:32:02.934Z,95091.75
2022-08-09T18:34:31.667Z,95098.47
2022-08-09T18:36:58.807Z,95101.44
2022-08-09T18:39:31.898Z,95101.06
2022-08-09T18:42:01.123Z,95116.66
2022-08-09T18:44:28.004Z,95108.41
2022-08-09T18:47:07.794Z,95107.66
2022-08-09T18:49:46.302Z,95102.25
2022-08-09T18:52:15.766Z,95106.50
2022-08-09T18:54:49.834Z,95110.19
2022-08-09T18:57:22.290Z,95113.56
2022-08-09T18:59:57.581Z,95118.53
2022-08-09T19:02:32.361Z,95133.59
2022-08-09T19:05:20.224Z,95115.56
2022-08-09T19:08:04.039Z,95136.75
2022-08-09T19:10:39.221Z,95128.34
2022-08-09T19:13:15.265Z,95131.16
2022-08-09T19:15:49.917Z,95135.22
2022-08-09T19:18:36.538Z,95142.84
2022-08-09T19:21:09.873Z,95131.28
2022-08-09T19:24:33.573Z,95147.13
2022-08-09T19:26:32.266Z,95136.34
2022-08-09T19:29:15.564Z,95140.25
2022-08-09T19:31:51.162Z,95149.50
2022-08-09T19:34:22.713Z,95148.00
2022-08-09T19:36:55.929Z,95119.50
2022-08-09T19:39:43.773Z,95139.47
2022-08-09T19:42:15.104Z,95136.28
2022-08-09T19:44:50.961Z,95137.19
2022-08-09T19:47:22.929Z,95136.78
2022-08-09T19:50:07.978Z,95126.19
2022-08-09T19:52:37.990Z,95126.53
2022-08-09T19:55:17.556Z,95122.78
2022-08-09T19:57:46.311Z,95124.41
2022-08-09T20:00:15.404Z,95135.00
2022-08-09T20:04:17.127Z,95136.06
2022-08-09T20:05:32.679Z,95125.28
2022-08-09T20:08:16.138Z,95123.41
2022-08-09T20:10:52.304Z,95128.63
2022-08-09T20:13:21.084Z,95119.09
2022-08-09T20:16:37.862Z,95130.97
2022-08-09T20:18:35.381Z,95120.78
2022-08-09T20:21:03.132Z,95120.97
2022-08-09T20:23:39.415Z,95120.03
2022-08-09T20:26:07.538Z,95126.88
2022-08-09T20:28:38.765Z,95124.78
2022-08-09T20:31:15.608Z,95120.66
2022-08-09T20:33:43.836Z,95119.53
2022-08-09T20:36:11.324Z,95125.44
2022-08-09T20:39:17.072Z,95116.94
2022-08-09T20:41:35.559Z,95125.09
2022-08-09T20:44:05.144Z,95129.84
2022-08-09T20:46:42.887Z,95131.72
2022-08-09T20:49:12.746Z,95140.16
2022-08-09T20:51:41.507Z,95148.31
2022-08-09T20:54:12.643Z,95154.28
2022-08-09T20:56:47.153Z,95172.03
2022-08-09T20:59:17.180Z,95165.97
2022-08-09T21:01:50.450Z,95169.88
2022-08-09T21:05:54.030Z,95174.47
2022-08-09T21:07:12.590Z,95170.06
2022-08-09T21:09:57.012Z,95181.19
2022-08-09T21:12:32.165Z,95185.91
2022-08-09T21:15:17.467Z,95174.34
2022-08-09T21:18:23.635Z,95169.63
2022-08-09T21:20:37.277Z,95168.44
2022-08-09T21:23:09.139Z,95179.00
2022-08-09T21:25:55.923Z,95167.56
2022-08-09T21:28:35.212Z,95167.44
2022-08-09T21:31:16.416Z,95176.16
2022-08-09T21:33:52.846Z,95174.66
2022-08-09T21:36:23.535Z,95177.56
2022-08-09T21:38:57.459Z,95176.69
2022-08-09T21:41:59.833Z,95170.25
2022-08-09T21:44:15.229Z,95176.88
2022-08-09T21:46:59.247Z,95161.81
2022-08-09T21:49:25.919Z,95172.72
2022-08-09T21:51:53.556Z,95161.72
2022-08-09T21:54:21.296Z,95162.00
2022-08-09T21:56:54.294Z,95164.56
2022-08-09T21:59:23.362Z,95151.66
2022-08-09T22:02:01.304Z,95154.91
2022-08-09T22:04:57.047Z,95152.56
2022-08-09T22:07:34.951Z,95148.50
2022-08-09T22:10:06.017Z,95154.81
2022-08-09T22:12:33.808Z,95154.06
2022-08-09T22:15:01.138Z,95152.50
2022-08-09T22:17:27.848Z,95149.19
2022-08-09T22:20:00.890Z,95145.34
2022-08-09T22:22:31.271Z,95152.09
2022-08-09T22:26:08.198Z,95135.94
2022-08-09T22:27:47.818Z,95145.47
2022-08-09T22:30:15.872Z,95145.31
2022-08-09T22:32:53.086Z,95150.25
2022-08-09T22:35:59.879Z,95151.28
2022-08-09T22:38:07.585Z,95149.16
2022-08-09T22:40:35.343Z,95113.91
2022-08-09T22:43:08.675Z,95142.22
2022-08-09T22:48:12.965Z,95135.31
2022-08-09T22:48:34.629Z,95134.75
2022-08-09T22:51:10.735Z,95146.22
2022-08-09T22:54:02.691Z,95124.22
2022-08-09T22:56:33.527Z,95130.72
2022-08-09T22:59:00.935Z,95138.56
2022-08-09T23:01:32.550Z,95148.59
2022-08-09T23:04:03.421Z,95140.56
2022-08-09T23:06:51.738Z,95133.56
2022-08-09T23:09:18.849Z,95130.81
2022-08-09T23:11:45.477Z,95143.66
2022-08-09T23:14:17.581Z,95142.47
2022-08-09T23:16:56.971Z,95141.78
2022-08-09T23:19:23.619Z,95143.88
2022-08-09T23:21:50.347Z,95143.72
2022-08-09T23:24:17.006Z,95138.91
2022-08-09T23:26:43.661Z,95131.91
2022-08-09T23:29:13.450Z,95137.94
2022-08-09T23:31:41.184Z,95135.38
2022-08-09T23:34:08.237Z,95131.91
2022-08-09T23:36:35.705Z,95131.16
2022-08-09T23:39:04.884Z,95122.66
2022-08-09T23:41:31.623Z,95122.13
2022-08-09T23:44:00.239Z,95122.13
2022-08-09T23:46:28.782Z,95121.31
2022-08-09T23:48:55.717Z,95095.72
2022-08-09T23:51:22.560Z,95131.00
2022-08-09T23:53:52.365Z,95124.19
2022-08-09T23:56:39.626Z,95117.38
2022-08-09T23:59:06.206Z,95116.81
